createdAt,value
2018-10-07T00:00:59.678Z,8.20
2018-10-07T00:03:28.192Z,6.33
2018-10-07T00:05:56.829Z,5.30
2018-10-07T00:08:25.309Z,4.63
2018-10-07T00:10:53.808Z,6.87
2018-10-07T00:13:22.250Z,7.17
2018-10-07T00:15:50.703Z,6.83
2018-10-07T00:18:19.185Z,6.70
2018-10-07T00:20:47.606Z,6.47
2018-10-07T00:23:16.310Z,5.67
2018-10-07T00:25:44.702Z,6.03
2018-10-07T00:28:13.138Z,5.63
2018-10-07T00:30:41.539Z,7.37
2018-10-07T00:33:09.982Z,4.83
2018-10-07T00:35:38.377Z,6.20
2018-10-07T00:38:06.846Z,4.90
2018-10-07T00:40:35.296Z,7.60
2018-10-07T00:43:03.730Z,5.93
2018-10-07T00:45:32.277Z,5.87
2018-10-07T00:48:00.835Z,6.43
2018-10-07T00:50:29.278Z,5.87
2018-10-07T00:52:58.102Z,6.00
2018-10-07T00:55:26.902Z,6.90
2018-10-07T00:57:55.314Z,5.00
2018-10-07T01:00:23.884Z,5.23
2018-10-07T01:02:52.396Z,6.30
2018-10-07T01:05:20.948Z,5.73
2018-10-07T01:07:49.436Z,7.30
2018-10-07T01:10:17.857Z,4.63
2018-10-07T01:12:46.288Z,7.20
2018-10-07T01:15:14.755Z,5.03
2018-10-07T01:17:43.234Z,5.20
2018-10-07T01:20:11.694Z,6.37
2018-10-07T01:22:40.446Z,5.83
2018-10-07T01:25:08.916Z,5.17
2018-10-07T01:27:37.410Z,4.33
2018-10-07T01:30:06.347Z,5.33
2018-10-07T01:32:34.969Z,5.40
2018-10-07T01:35:03.760Z,5.53
2018-10-07T01:37:32.184Z,5.40
2018-10-07T01:40:00.633Z,5.83
2018-10-07T01:42:29.051Z,5.60
2018-10-07T01:44:57.474Z,5.60
2018-10-07T01:47:25.859Z,6.53
2018-10-07T01:49:54.389Z,6.60
2018-10-07T01:52:22.971Z,6.10
2018-10-07T01:54:51.332Z,5.83
2018-10-07T01:57:19.741Z,4.77
2018-10-07T01:59:48.256Z,5.23
2018-10-07T02:02:16.640Z,7.53
2018-10-07T02:04:45.122Z,5.00
2018-10-07T02:07:13.512Z,6.33
2018-10-07T02:09:41.971Z,5.83
2018-10-07T02:12:10.354Z,5.20
2018-10-07T02:14:38.839Z,6.20
2018-10-07T02:17:07.371Z,4.83
2018-10-07T02:19:35.973Z,5.07
2018-10-07T02:22:04.806Z,6.27
2018-10-07T02:24:33.293Z,6.13
2018-10-07T02:27:01.739Z,5.10
2018-10-07T02:29:30.195Z,5.37
2018-10-07T02:31:58.977Z,5.47
2018-10-07T02:34:27.460Z,8.13
2018-10-07T02:36:55.958Z,5.90
2018-10-07T02:39:24.477Z,6.50
2018-10-07T02:41:52.994Z,4.77
2018-10-07T02:44:21.521Z,5.83
2018-10-07T02:46:50.009Z,5.33
2018-10-07T02:49:18.448Z,5.50
2018-10-07T02:51:47.651Z,7.17
2018-10-07T02:54:16.178Z,5.87
2018-10-07T02:56:44.914Z,5.70
2018-10-07T02:59:14.995Z,7.17
2018-10-07T03:01:43.486Z,6.90
2018-10-07T03:04:12.325Z,5.70
2018-10-07T03:06:40.805Z,6.00
2018-10-07T03:09:10.195Z,5.37
2018-10-07T03:11:38.756Z,5.00
2018-10-07T03:14:07.335Z,6.67
2018-10-07T03:16:35.771Z,6.20
2018-10-07T03:19:04.275Z,5.57
2018-10-07T03:21:33.237Z,126.07
2018-10-07T03:24:01.759Z,5.60
2018-10-07T03:26:30.184Z,6.27
2018-10-07T03:28:58.581Z,6.83
2018-10-07T03:31:27.064Z,6.77
2018-10-07T03:33:55.533Z,5.83
2018-10-07T03:36:24.043Z,5.40
2018-10-07T03:38:52.467Z,6.80
2018-10-07T03:41:20.935Z,7.30
2018-10-07T03:43:49.661Z,6.47
2018-10-07T03:46:18.121Z,6.77
2018-10-07T03:48:46.549Z,6.83
2018-10-07T03:51:15.020Z,7.37
2018-10-07T03:53:43.441Z,6.03
2018-10-07T03:56:11.870Z,8.40
2018-10-07T03:58:40.308Z,5.50
2018-10-07T04:01:08.807Z,6.80
2018-10-07T04:03:37.300Z,7.10
2018-10-07T04:06:05.865Z,6.00
2018-10-07T04:08:34.719Z,6.57
2018-10-07T04:11:03.136Z,7.47
2018-10-07T04:13:31.585Z,7.87
2018-10-07T04:16:00.081Z,7.53
2018-10-07T04:18:28.735Z,6.17
2018-10-07T04:20:57.179Z,5.87
2018-10-07T04:23:25.680Z,7.03
2018-10-07T04:25:54.142Z,6.87
2018-10-07T04:28:22.593Z,10.30
2018-10-07T04:30:51.144Z,7.30
2018-10-07T04:33:19.570Z,7.50
2018-10-07T04:35:48.005Z,8.30
2018-10-07T04:38:16.480Z,7.73
2018-10-07T04:40:45.192Z,6.27
2018-10-07T04:43:13.653Z,8.10
2018-10-07T04:45:42.104Z,10.10
2018-10-07T04:48:10.618Z,6.50
2018-10-07T04:50:39.065Z,8.23
2018-10-07T04:53:07.536Z,9.87
2018-10-07T04:55:36.170Z,7.23
2018-10-07T04:58:04.650Z,7.03
2018-10-07T05:00:33.301Z,8.03
2018-10-07T05:03:01.818Z,8.77
2018-10-07T05:05:30.350Z,6.57
2018-10-07T05:07:58.890Z,7.97
2018-10-07T05:11:13.981Z,7.07
2018-10-07T05:13:54.438Z,7.20
2018-10-07T05:16:28.409Z,6.73
2018-10-07T05:18:57.298Z,8.97
2018-10-07T05:21:26.129Z,6.63
2018-10-07T05:23:55.199Z,6.97
2018-10-07T05:26:23.633Z,7.13
2018-10-07T05:28:52.497Z,6.97
2018-10-07T05:31:20.921Z,7.43
2018-10-07T05:33:49.394Z,6.63
2018-10-07T05:36:17.823Z,6.83
2018-10-07T05:38:46.361Z,9.17
2018-10-07T05:41:14.861Z,7.63
2018-10-07T05:43:43.299Z,6.43
2018-10-07T05:46:12.436Z,7.30
2018-10-07T05:48:40.834Z,8.43
2018-10-07T05:51:09.264Z,7.10
2018-10-07T05:53:37.788Z,7.03
2018-10-07T05:56:06.330Z,7.23
2018-10-07T05:58:35.160Z,6.53
2018-10-07T06:01:14.308Z,7.50
2018-10-07T06:04:52.790Z,10.73
2018-10-07T06:07:22.083Z,7.13
2018-10-07T06:09:50.563Z,6.57
2018-10-07T06:12:19.338Z,8.37
2018-10-07T06:14:59.132Z,9.13
2018-10-07T06:17:28.081Z,7.00
2018-10-07T06:19:56.818Z,8.87
2018-10-07T06:22:25.737Z,8.43
2018-10-07T06:24:54.502Z,8.50
2018-10-07T06:27:23.323Z,8.87
2018-10-07T06:29:52.149Z,8.27
2018-10-07T06:32:20.753Z,7.63
2018-10-07T06:34:49.244Z,7.00
2018-10-07T06:37:17.658Z,7.00
2018-10-07T06:39:46.244Z,6.50
2018-10-07T06:42:14.766Z,6.37
2018-10-07T06:44:43.214Z,9.10
2018-10-07T06:47:11.699Z,7.33
2018-10-07T06:49:40.186Z,6.93
2018-10-07T06:52:08.634Z,6.33
2018-10-07T06:54:37.065Z,6.13
2018-10-07T06:57:05.614Z,6.73
2018-10-07T06:59:34.100Z,8.37
2018-10-07T07:02:03.128Z,7.70
2018-10-07T07:04:31.613Z,6.87
2018-10-07T07:07:00.063Z,6.07
2018-10-07T07:09:28.512Z,6.27
2018-10-07T07:11:56.981Z,7.50
2018-10-07T07:14:25.400Z,6.43
2018-10-07T07:16:53.826Z,7.43
2018-10-07T07:19:22.250Z,6.30
2018-10-07T07:21:50.666Z,6.20
2018-10-07T07:24:19.102Z,6.97
2018-10-07T07:26:47.502Z,6.77
2018-10-07T07:29:16.045Z,8.00
2018-10-07T07:31:44.475Z,6.50
2018-10-07T07:34:12.942Z,7.77
2018-10-07T07:36:41.516Z,9.60
2018-10-07T07:39:10.163Z,8.00
2018-10-07T07:41:38.718Z,6.87
2018-10-07T07:44:07.412Z,7.53
2018-10-07T07:46:35.868Z,10.87
2018-10-07T07:49:04.718Z,6.93
2018-10-07T07:51:33.383Z,9.03
2018-10-07T07:54:01.862Z,8.23
2018-10-07T07:56:30.260Z,7.80
2018-10-07T07:58:58.732Z,11.53
2018-10-07T08:01:27.178Z,8.77
2018-10-07T08:03:55.617Z,7.50
2018-10-07T08:06:24.166Z,7.60
2018-10-07T08:08:52.660Z,7.27
2018-10-07T08:11:21.275Z,8.07
2018-10-07T08:13:49.717Z,9.70
2018-10-07T08:16:18.157Z,9.27
2018-10-07T08:18:46.647Z,9.77
2018-10-07T08:21:15.034Z,8.40
2018-10-07T08:23:43.527Z,11.27
2018-10-07T08:26:12.223Z,11.57
2018-10-07T08:28:40.628Z,9.07
2018-10-07T08:31:09.082Z,8.67
2018-10-07T08:33:37.449Z,10.53
2018-10-07T08:36:05.956Z,8.50
2018-10-07T08:38:34.429Z,9.23
2018-10-07T08:41:02.929Z,10.03
2018-10-07T08:43:31.381Z,12.30
2018-10-07T08:45:59.837Z,9.33
2018-10-07T08:48:28.302Z,10.00
2018-10-07T08:50:56.804Z,9.73
2018-10-07T08:53:25.396Z,11.40
2018-10-07T08:55:53.799Z,8.67
2018-10-07T08:58:22.227Z,12.53
2018-10-07T09:00:50.705Z,9.17
2018-10-07T09:03:19.154Z,9.83
2018-10-07T09:05:47.648Z,11.37
2018-10-07T09:08:16.267Z,11.87
2018-10-07T09:10:44.733Z,11.93
2018-10-07T09:13:13.218Z,10.17
2018-10-07T09:15:41.595Z,10.13
2018-10-07T09:18:10.022Z,10.00
2018-10-07T09:20:38.463Z,9.53
2018-10-07T09:23:07.470Z,10.20
2018-10-07T09:25:35.845Z,12.03
2018-10-07T09:28:04.424Z,8.43
2018-10-07T09:30:33.553Z,7.93
2018-10-07T09:33:02.070Z,9.07
2018-10-07T09:35:30.494Z,9.70
2018-10-07T09:37:59.032Z,11.83
2018-10-07T09:40:27.425Z,8.33
2018-10-07T09:42:55.836Z,8.83
2018-10-07T09:45:24.684Z,8.27
2018-10-07T09:47:53.177Z,11.40
2018-10-07T09:50:22.189Z,7.87
2018-10-07T09:52:50.607Z,7.40
2018-10-07T09:55:19.096Z,7.83
2018-10-07T09:57:47.499Z,10.83
2018-10-07T10:00:20.176Z,8.00
2018-10-07T10:02:48.596Z,8.00
2018-10-07T10:05:17.116Z,10.93
2018-10-07T10:07:45.585Z,11.80
2018-10-07T10:10:14.012Z,7.13
2018-10-07T10:12:42.484Z,11.30
2018-10-07T10:15:10.897Z,9.23
2018-10-07T10:17:42.020Z,8.07
2018-10-07T10:20:11.629Z,7.67
2018-10-07T10:24:57.047Z,7.47
2018-10-07T10:27:36.740Z,8.07
2018-10-07T10:30:20.368Z,9.67
2018-10-07T10:32:56.319Z,9.97
2018-10-07T10:35:38.355Z,7.07
2018-10-07T10:38:14.561Z,11.57
2018-10-07T10:40:51.801Z,7.77
2018-10-07T10:43:44.931Z,9.37
2018-10-07T10:46:18.500Z,11.47
2018-10-07T10:49:21.920Z,8.87
2018-10-07T10:52:02.616Z,9.20
2018-10-07T10:54:41.716Z,9.53
2018-10-07T10:57:20.452Z,10.20
2018-10-07T11:00:22.853Z,8.57
2018-10-07T11:05:13.121Z,10.47
2018-10-07T11:07:47.943Z,9.17
2018-10-07T11:12:33.137Z,10.53
2018-10-07T11:16:10.715Z,7.90
2018-10-07T11:18:55.034Z,6.73
2018-10-07T11:23:38.945Z,7.73
2018-10-07T11:26:17.756Z,8.67
2018-10-07T11:28:56.843Z,8.07
2018-10-07T11:31:32.407Z,12.60
2018-10-07T11:34:12.891Z,10.80
2018-10-07T11:37:03.114Z,8.57
2018-10-07T11:41:45.093Z,6.97
2018-10-07T11:44:24.755Z,6.87
2018-10-07T11:47:17.664Z,8.70
2018-10-07T11:49:50.180Z,8.37
2018-10-07T11:52:41.941Z,9.27
2018-10-07T11:55:09.441Z,8.00
2018-10-07T11:57:37.917Z,11.33
2018-10-07T12:00:06.409Z,6.57
2018-10-07T12:02:34.878Z,6.83
2018-10-07T12:05:03.509Z,6.87
2018-10-07T12:07:32.862Z,7.40
2018-10-07T12:10:01.263Z,8.43
2018-10-07T12:12:29.938Z,8.23
2018-10-07T12:14:58.334Z,12.30
2018-10-07T12:17:26.803Z,9.20
2018-10-07T12:19:55.241Z,7.50
2018-10-07T12:22:23.994Z,9.23
2018-10-07T12:24:52.466Z,7.20
2018-10-07T12:27:20.899Z,8.30
2018-10-07T12:29:49.378Z,6.93
2018-10-07T12:32:17.774Z,8.43
2018-10-07T12:34:46.199Z,6.47
2018-10-07T12:37:14.653Z,7.37
2018-10-07T12:39:43.055Z,7.20
2018-10-07T12:42:11.483Z,7.47
2018-10-07T12:44:39.912Z,8.17
2018-10-07T12:47:08.360Z,7.23
2018-10-07T12:49:36.801Z,7.90
2018-10-07T12:52:05.205Z,8.20
2018-10-07T12:54:33.732Z,8.67
2018-10-07T12:57:02.308Z,9.30
2018-10-07T12:59:30.739Z,7.00
2018-10-07T13:01:59.261Z,8.13
2018-10-07T13:04:27.670Z,6.20
2018-10-07T13:06:56.128Z,7.53
2018-10-07T13:09:24.653Z,9.27
2018-10-07T13:11:53.285Z,8.00
2018-10-07T13:14:21.732Z,7.00
2018-10-07T13:16:50.141Z,6.83
2018-10-07T13:19:18.680Z,7.07
2018-10-07T13:21:47.157Z,8.53
2018-10-07T13:24:15.642Z,7.80
2018-10-07T13:26:44.020Z,6.30
2018-10-07T13:29:12.476Z,5.57
2018-10-07T13:31:40.999Z,7.40
2018-10-07T13:34:09.383Z,8.23
2018-10-07T13:36:37.998Z,8.67
2018-10-07T13:39:09.210Z,6.07
2018-10-07T13:41:37.733Z,6.73
2018-10-07T13:44:06.194Z,6.77
2018-10-07T13:46:35.074Z,6.17
2018-10-07T13:49:03.528Z,5.07
2018-10-07T13:51:32.336Z,9.97
2018-10-07T13:54:00.838Z,5.73
2018-10-07T13:56:29.442Z,5.20
2018-10-07T13:58:57.912Z,5.17
2018-10-07T14:01:26.440Z,6.53
2018-10-07T14:03:54.983Z,7.97
2018-10-07T14:06:23.634Z,6.53
2018-10-07T14:08:52.056Z,6.83
2018-10-07T14:11:20.495Z,27.57
2018-10-07T14:13:49.013Z,12.50
2018-10-07T14:16:17.442Z,13.30
2018-10-07T14:18:45.898Z,11.13
2018-10-07T14:21:14.325Z,15.53
2018-10-07T14:23:44.605Z,10.97
2018-10-07T14:26:13.166Z,9.20
2018-10-07T14:28:41.626Z,7.20
2018-10-07T14:31:09.990Z,6.13
2018-10-07T14:33:38.350Z,6.23
2018-10-07T14:36:06.898Z,6.23
2018-10-07T14:38:35.601Z,9.43
2018-10-07T14:41:04.032Z,7.93
2018-10-07T14:43:32.503Z,7.20
2018-10-07T14:46:00.927Z,5.50
2018-10-07T14:48:29.373Z,5.33
2018-10-07T14:50:57.825Z,4.20
2018-10-07T14:53:26.220Z,4.23
2018-10-07T14:55:54.772Z,4.70
2018-10-07T14:58:23.182Z,4.67
2018-10-07T15:00:51.668Z,4.33
2018-10-07T15:03:20.119Z,5.87
2018-10-07T15:05:48.953Z,4.03
2018-10-07T15:08:17.342Z,4.20
2018-10-07T15:10:45.774Z,4.17
2018-10-07T15:13:14.262Z,5.47
2018-10-07T15:15:42.697Z,3.80
2018-10-07T15:18:11.120Z,4.00
2018-10-07T15:20:39.606Z,4.67
2018-10-07T15:23:08.083Z,3.77
2018-10-07T15:25:36.517Z,5.03
2018-10-07T15:28:05.243Z,3.97
2018-10-07T15:30:33.701Z,4.57
2018-10-07T15:33:02.130Z,4.40
2018-10-07T15:35:30.632Z,6.57
2018-10-07T15:37:59.147Z,5.07
2018-10-07T15:40:27.540Z,4.63
2018-10-07T15:42:55.959Z,4.50
2018-10-07T15:45:24.366Z,4.27
2018-10-07T15:47:52.782Z,4.40
2018-10-07T15:50:21.153Z,4.20
2018-10-07T15:52:49.622Z,4.20
2018-10-07T15:55:18.083Z,5.53
2018-10-07T15:57:46.722Z,4.33
2018-10-07T16:00:15.182Z,5.10
2018-10-07T16:02:43.649Z,4.93
2018-10-07T16:05:12.134Z,5.23
2018-10-07T16:07:40.508Z,4.47
2018-10-07T16:10:08.978Z,5.03
2018-10-07T16:12:37.445Z,6.77
2018-10-07T16:15:05.872Z,4.57
2018-10-07T16:17:34.324Z,4.00
2018-10-07T16:20:02.739Z,4.30
2018-10-07T16:22:31.177Z,5.17
2018-10-07T16:24:59.622Z,4.37
2018-10-07T16:27:28.038Z,4.53
2018-10-07T16:29:56.520Z,4.43
2018-10-07T16:32:24.969Z,5.20
2018-10-07T16:34:53.364Z,7.90
2018-10-07T16:37:21.925Z,9.43
2018-10-07T16:39:50.359Z,4.57
2018-10-07T16:42:18.793Z,4.50
2018-10-07T16:44:47.245Z,4.70
2018-10-07T16:47:15.738Z,3.97
2018-10-07T16:49:44.185Z,4.10
2018-10-07T16:52:12.548Z,4.27
2018-10-07T16:54:40.960Z,5.50
2018-10-07T16:57:09.391Z,4.67
2018-10-07T16:59:37.837Z,4.10
2018-10-07T17:02:06.226Z,6.53
2018-10-07T17:04:34.753Z,6.23
2018-10-07T17:07:03.185Z,5.27
2018-10-07T17:09:31.692Z,8.77
2018-10-07T17:12:00.161Z,6.33
2018-10-07T17:14:28.587Z,5.93
2018-10-07T17:16:57.393Z,6.50
2018-10-07T17:19:26.066Z,9.47
2018-10-07T17:21:54.509Z,6.33
2018-10-07T17:24:22.912Z,4.73
2018-10-07T17:26:51.374Z,5.77
2018-10-07T17:29:19.812Z,4.90
2018-10-07T17:31:48.243Z,6.67
2018-10-07T17:34:16.725Z,4.87
2018-10-07T17:36:45.190Z,6.20
2018-10-07T17:39:13.745Z,5.17
2018-10-07T17:41:42.419Z,4.13
2018-10-07T17:44:10.950Z,4.37
2018-10-07T17:46:39.337Z,4.43
2018-10-07T17:49:08.051Z,4.30
2018-10-07T17:51:36.495Z,5.20
2018-10-07T17:54:04.968Z,5.40
2018-10-07T17:56:33.361Z,5.47
2018-10-07T17:59:01.805Z,5.00
2018-10-07T18:01:30.264Z,5.00
2018-10-07T18:03:58.631Z,5.90
2018-10-07T18:06:27.151Z,4.80
2018-10-07T18:08:55.607Z,5.63
2018-10-07T18:11:25.286Z,5.27
2018-10-07T18:13:53.651Z,7.20
2018-10-07T18:16:22.184Z,7.60
2018-10-07T18:18:50.526Z,6.90
2018-10-07T18:21:19.200Z,6.30
2018-10-07T18:23:47.670Z,6.87
2018-10-07T18:26:16.123Z,8.60
2018-10-07T18:28:44.537Z,9.53
2018-10-07T18:31:13.021Z,8.37
2018-10-07T18:33:41.480Z,8.87
2018-10-07T18:36:09.849Z,7.10
2018-10-07T18:38:38.229Z,8.37
2018-10-07T18:41:06.675Z,7.33
2018-10-07T18:43:35.173Z,7.73
2018-10-07T18:46:03.898Z,9.13
2018-10-07T18:48:32.411Z,11.20
2018-10-07T18:51:01.024Z,12.50
2018-10-07T18:53:29.476Z,12.83
2018-10-07T18:55:57.934Z,11.83
2018-10-07T18:58:26.411Z,13.33
2018-10-07T19:00:54.850Z,15.53
2018-10-07T19:03:23.347Z,13.10
2018-10-07T19:05:51.824Z,13.87
2018-10-07T19:08:20.302Z,20.17
2018-10-07T19:10:48.893Z,13.23
2018-10-07T19:13:17.288Z,13.20
2018-10-07T19:15:45.755Z,14.43
2018-10-07T19:18:14.193Z,12.60
2018-10-07T19:20:42.802Z,12.73
2018-10-07T19:23:11.348Z,13.67
2018-10-07T19:25:39.878Z,14.30
2018-10-07T19:28:08.296Z,13.53
2018-10-07T19:30:36.668Z,12.93
2018-10-07T19:33:05.175Z,14.57
2018-10-07T19:35:33.639Z,13.63
2018-10-07T19:38:02.029Z,12.90
2018-10-07T19:40:30.533Z,13.50
2018-10-07T19:42:58.957Z,11.50
2018-10-07T19:45:27.389Z,12.83
2018-10-07T19:47:55.944Z,11.87
2018-10-07T19:50:24.469Z,12.37
2018-10-07T19:52:53.014Z,14.40
2018-10-07T19:55:21.648Z,13.80
2018-10-07T19:57:50.086Z,15.80
2018-10-07T20:00:18.618Z,14.13
2018-10-07T20:02:47.003Z,16.40
2018-10-07T20:05:15.413Z,16.33
2018-10-07T20:07:43.905Z,16.80
2018-10-07T20:10:12.348Z,19.03
2018-10-07T20:12:40.826Z,18.67
2018-10-07T20:15:09.575Z,17.87
2018-10-07T20:17:38.046Z,20.27
2018-10-07T20:20:06.760Z,20.93
2018-10-07T20:22:35.259Z,19.70
2018-10-07T20:25:03.769Z,23.07
2018-10-07T20:27:32.261Z,24.23
2018-10-07T20:30:00.664Z,21.30
2018-10-07T20:32:29.087Z,24.00
2018-10-07T20:34:57.712Z,24.43
2018-10-07T20:37:26.151Z,22.77
2018-10-07T20:39:54.582Z,22.70
2018-10-07T20:42:23.226Z,23.43
2018-10-07T20:44:51.640Z,21.87
2018-10-07T20:47:20.246Z,23.60
2018-10-07T20:49:48.652Z,20.60
2018-10-07T20:52:17.189Z,20.80
2018-10-07T20:54:45.849Z,23.30
2018-10-07T20:57:14.295Z,23.20
2018-10-07T20:59:42.745Z,22.20
2018-10-07T21:02:11.180Z,25.20
2018-10-07T21:04:39.731Z,23.80
2018-10-07T21:07:08.162Z,25.27
2018-10-07T21:09:36.621Z,26.77
2018-10-07T21:12:05.153Z,27.07
2018-10-07T21:14:33.831Z,29.67
2018-10-07T21:17:02.351Z,31.00
2018-10-07T21:19:30.948Z,33.53
2018-10-07T21:21:59.362Z,38.93
2018-10-07T21:24:27.780Z,37.70
2018-10-07T21:26:56.309Z,36.30
2018-10-07T21:29:24.685Z,36.83
2018-10-07T21:31:53.153Z,37.37
2018-10-07T21:34:21.558Z,36.93
2018-10-07T21:36:49.968Z,35.43
2018-10-07T21:39:18.385Z,37.53
2018-10-07T21:41:46.923Z,34.73
2018-10-07T21:44:15.432Z,37.90
2018-10-07T21:46:43.945Z,37.20
2018-10-07T21:49:12.480Z,42.10
2018-10-07T21:51:40.982Z,40.83
2018-10-07T21:54:09.366Z,38.23
2018-10-07T21:56:37.840Z,39.47
2018-10-07T21:59:06.804Z,36.00
2018-10-07T22:01:35.259Z,35.73
2018-10-07T22:04:04.039Z,39.47
2018-10-07T22:06:32.498Z,40.43
2018-10-07T22:09:00.966Z,42.03
2018-10-07T22:11:29.439Z,40.30
2018-10-07T22:13:57.895Z,38.13
2018-10-07T22:16:26.332Z,42.97
2018-10-07T22:18:54.805Z,38.53
2018-10-07T22:21:23.284Z,41.17
2018-10-07T22:23:51.657Z,38.63
2018-10-07T22:26:20.151Z,37.07
2018-10-07T22:28:48.578Z,35.63
2018-10-07T22:31:17.016Z,35.67
2018-10-07T22:33:45.520Z,35.80
2018-10-07T22:36:14.022Z,36.47
2018-10-07T22:38:42.626Z,36.47
2018-10-07T22:41:11.043Z,36.47
2018-10-07T22:43:39.468Z,35.23
2018-10-07T22:46:07.954Z,39.67
2018-10-07T22:48:36.423Z,36.97
2018-10-07T22:51:04.914Z,37.40
2018-10-07T22:53:33.317Z,37.13
2018-10-07T22:56:01.745Z,38.07
2018-10-07T22:58:30.224Z,37.77
2018-10-07T23:00:58.644Z,37.23
2018-10-07T23:03:27.007Z,39.47
2018-10-07T23:05:55.481Z,38.77
2018-10-07T23:08:23.862Z,36.53
2018-10-07T23:10:52.333Z,35.27
2018-10-07T23:13:20.711Z,37.83
2018-10-07T23:15:49.206Z,34.87
2018-10-07T23:18:17.718Z,38.27
2018-10-07T23:20:46.232Z,37.50
2018-10-07T23:23:14.672Z,36.13
2018-10-07T23:25:43.121Z,36.07
2018-10-07T23:28:11.632Z,39.17
2018-10-07T23:30:40.098Z,36.23
2018-10-07T23:33:08.527Z,33.67
2018-10-07T23:35:36.971Z,32.80
2018-10-07T23:38:05.709Z,31.63
2018-10-07T23:40:34.181Z,31.57
2018-10-07T23:43:03.044Z,29.30
2018-10-07T23:45:31.491Z,33.60
2018-10-07T23:48:00.114Z,30.07
2018-10-07T23:50:28.627Z,31.50
2018-10-07T23:52:57.146Z,31.77
2018-10-07T23:55:25.620Z,32.37
2018-10-07T23:57:54.026Z,33.47
